sensor_id;sensor_type;location;lat;lon;timestamp;P1;durP1;ratioP1;P2;durP2;ratioP2
18576;SDS011;9418;52.694;13.294;2022-10-16T00:00:20;2.40;;;2.20;;
18576;SDS011;9418;52.694;13.294;2022-10-16T00:02:47;3.20;;;1.80;;
18576;SDS011;9418;52.694;13.294;2022-10-16T00:05:14;9.70;;;2.23;;
18576;SDS011;9418;52.694;13.294;2022-10-16T00:07:40;2.07;;;1.97;;
18576;SDS011;9418;52.694;13.294;2022-10-16T00:10:07;1.87;;;1.77;;
18576;SDS011;9418;52.694;13.294;2022-10-16T00:12:34;3.17;;;2.20;;
18576;SDS011;9418;52.694;13.294;2022-10-16T00:15:00;1.70;;;1.60;;
18576;SDS011;9418;52.694;13.294;2022-10-16T00:17:29;2.20;;;2.00;;
18576;SDS011;9418;52.694;13.294;2022-10-16T00:19:56;2.30;;;2.10;;
18576;SDS011;9418;52.694;13.294;2022-10-16T00:22:22;1.97;;;1.77;;
18576;SDS011;9418;52.694;13.294;2022-10-16T00:24:49;4.40;;;1.90;;
18576;SDS011;9418;52.694;13.294;2022-10-16T00:27:17;1.97;;;1.77;;
18576;SDS011;9418;52.694;13.294;2022-10-16T00:29:43;1.60;;;1.50;;
18576;SDS011;9418;52.694;13.294;2022-10-16T00:32:10;2.13;;;1.93;;
18576;SDS011;9418;52.694;13.294;2022-10-16T00:34:38;1.90;;;1.80;;
18576;SDS011;9418;52.694;13.294;2022-10-16T00:37:04;5.03;;;2.13;;
18576;SDS011;9418;52.694;13.294;2022-10-16T00:39:31;1.63;;;1.53;;
18576;SDS011;9418;52.694;13.294;2022-10-16T00:41:57;3.33;;;1.77;;
18576;SDS011;9418;52.694;13.294;2022-10-16T00:44:44;1.70;;;1.60;;
18576;SDS011;9418;52.694;13.294;2022-10-16T00:47:15;1.77;;;1.67;;
18576;SDS011;9418;52.694;13.294;2022-10-16T00:49:47;1.70;;;1.60;;
18576;SDS011;9418;52.694;13.294;2022-10-16T00:52:16;1.50;;;1.47;;
18576;SDS011;9418;52.694;13.294;2022-10-16T00:54:44;1.63;;;1.43;;
18576;SDS011;9418;52.694;13.294;2022-10-16T00:57:13;2.33;;;1.90;;
18576;SDS011;9418;52.694;13.294;2022-10-16T00:59:40;2.20;;;1.20;;
18576;SDS011;9418;52.694;13.294;2022-10-16T01:02:09;1.90;;;1.80;;
18576;SDS011;9418;52.694;13.294;2022-10-16T01:04:38;3.90;;;2.03;;
18576;SDS011;9418;52.694;13.294;2022-10-16T01:07:10;3.47;;;1.77;;
18576;SDS011;9418;52.694;13.294;2022-10-16T01:09:45;1.87;;;1.77;;
18576;SDS011;9418;52.694;13.294;2022-10-16T01:12:18;1.23;;;1.23;;
18576;SDS011;9418;52.694;13.294;2022-10-16T01:14:53;1.70;;;1.60;;
18576;SDS011;9418;52.694;13.294;2022-10-16T01:17:23;2.27;;;1.53;;
18576;SDS011;9418;52.694;13.294;2022-10-16T01:20:05;2.77;;;1.77;;
18576;SDS011;9418;52.694;13.294;2022-10-16T01:22:42;1.63;;;1.40;;
18576;SDS011;9418;52.694;13.294;2022-10-16T01:25:18;2.20;;;1.23;;
18576;SDS011;9418;52.694;13.294;2022-10-16T01:27:52;1.57;;;1.47;;
18576;SDS011;9418;52.694;13.294;2022-10-16T01:30:21;1.50;;;1.40;;
18576;SDS011;9418;52.694;13.294;2022-10-16T01:32:52;1.87;;;1.40;;
18576;SDS011;9418;52.694;13.294;2022-10-16T01:35:23;1.43;;;1.33;;
18576;SDS011;9418;52.694;13.294;2022-10-16T01:37:53;1.40;;;1.30;;
18576;SDS011;9418;52.694;13.294;2022-10-16T01:40:25;2.07;;;1.60;;
18576;SDS011;9418;52.694;13.294;2022-10-16T01:42:55;2.57;;;1.53;;
18576;SDS011;9418;52.694;13.294;2022-10-16T01:45:25;1.60;;;1.50;;
18576;SDS011;9418;52.694;13.294;2022-10-16T01:47:54;1.43;;;1.33;;
18576;SDS011;9418;52.694;13.294;2022-10-16T01:50:21;1.60;;;1.50;;
18576;SDS011;9418;52.694;13.294;2022-10-16T01:52:50;1.70;;;1.60;;
18576;SDS011;9418;52.694;13.294;2022-10-16T01:55:21;2.00;;;1.90;;
18576;SDS011;9418;52.694;13.294;2022-10-16T01:57:51;1.50;;;1.40;;
18576;SDS011;9418;52.694;13.294;2022-10-16T02:00:22;1.43;;;1.30;;
18576;SDS011;9418;52.694;13.294;2022-10-16T02:02:51;1.53;;;1.43;;
18576;SDS011;9418;52.694;13.294;2022-10-16T02:05:20;1.60;;;1.50;;
18576;SDS011;9418;52.694;13.294;2022-10-16T02:07:52;1.80;;;1.70;;
18576;SDS011;9418;52.694;13.294;2022-10-16T02:10:19;2.07;;;1.43;;
18576;SDS011;9418;52.694;13.294;2022-10-16T02:12:47;1.63;;;1.53;;
18576;SDS011;9418;52.694;13.294;2022-10-16T02:15:21;1.40;;;1.30;;
18576;SDS011;9418;52.694;13.294;2022-10-16T02:17:47;13.63;;;1.60;;
18576;SDS011;9418;52.694;13.294;2022-10-16T02:20:14;2.30;;;1.70;;
18576;SDS011;9418;52.694;13.294;2022-10-16T02:22:42;8.10;;;1.53;;
18576;SDS011;9418;52.694;13.294;2022-10-16T02:25:15;1.73;;;1.63;;
18576;SDS011;9418;52.694;13.294;2022-10-16T02:27:46;1.60;;;1.50;;
18576;SDS011;9418;52.694;13.294;2022-10-16T02:30:19;2.50;;;1.43;;
18576;SDS011;9418;52.694;13.294;2022-10-16T02:32:50;6.23;;;1.33;;
18576;SDS011;9418;52.694;13.294;2022-10-16T02:35:18;6.40;;;1.40;;
18576;SDS011;9418;52.694;13.294;2022-10-16T02:37:46;1.20;;;1.10;;
18576;SDS011;9418;52.694;13.294;2022-10-16T02:40:14;1.67;;;1.57;;
18576;SDS011;9418;52.694;13.294;2022-10-16T02:42:42;1.43;;;1.33;;
18576;SDS011;9418;52.694;13.294;2022-10-16T02:45:10;1.50;;;1.40;;
18576;SDS011;9418;52.694;13.294;2022-10-16T02:47:38;1.83;;;1.73;;
18576;SDS011;9418;52.694;13.294;2022-10-16T02:50:05;2.57;;;1.30;;
18576;SDS011;9418;52.694;13.294;2022-10-16T02:52:32;1.20;;;1.20;;
18576;SDS011;9418;52.694;13.294;2022-10-16T02:54:59;1.50;;;1.40;;
18576;SDS011;9418;52.694;13.294;2022-10-16T02:57:25;1.20;;;1.20;;
18576;SDS011;9418;52.694;13.294;2022-10-16T02:59:52;1.50;;;1.40;;
18576;SDS011;9418;52.694;13.294;2022-10-16T03:02:19;1.30;;;1.20;;
18576;SDS011;9418;52.694;13.294;2022-10-16T03:04:47;1.60;;;1.50;;
18576;SDS011;9418;52.694;13.294;2022-10-16T03:07:13;1.53;;;1.43;;
18576;SDS011;9418;52.694;13.294;2022-10-16T03:09:40;2.90;;;1.83;;
18576;SDS011;9418;52.694;13.294;2022-10-16T03:12:06;2.23;;;1.40;;
18576;SDS011;9418;52.694;13.294;2022-10-16T03:14:34;1.87;;;1.70;;
18576;SDS011;9418;52.694;13.294;2022-10-16T03:17:01;1.80;;;1.60;;
18576;SDS011;9418;52.694;13.294;2022-10-16T03:19:27;1.30;;;1.30;;
18576;SDS011;9418;52.694;13.294;2022-10-16T03:21:55;2.73;;;1.40;;
18576;SDS011;9418;52.694;13.294;2022-10-16T03:24:22;2.40;;;1.70;;
18576;SDS011;9418;52.694;13.294;2022-10-16T03:26:48;3.83;;;1.83;;
18576;SDS011;9418;52.694;13.294;2022-10-16T03:29:15;2.53;;;1.93;;
18576;SDS011;9418;52.694;13.294;2022-10-16T03:31:42;4.40;;;1.27;;
18576;SDS011;9418;52.694;13.294;2022-10-16T03:34:08;1.37;;;1.30;;
18576;SDS011;9418;52.694;13.294;2022-10-16T03:36:35;1.60;;;1.43;;
18576;SDS011;9418;52.694;13.294;2022-10-16T03:39:03;1.63;;;1.37;;
18576;SDS011;9418;52.694;13.294;2022-10-16T03:41:29;2.87;;;1.67;;
18576;SDS011;9418;52.694;13.294;2022-10-16T03:43:56;2.10;;;1.30;;
18576;SDS011;9418;52.694;13.294;2022-10-16T03:46:23;3.00;;;1.77;;
18576;SDS011;9418;52.694;13.294;2022-10-16T03:48:49;1.60;;;1.50;;
18576;SDS011;9418;52.694;13.294;2022-10-16T03:51:16;2.50;;;1.67;;
18576;SDS011;9418;52.694;13.294;2022-10-16T03:53:42;1.73;;;1.63;;
18576;SDS011;9418;52.694;13.294;2022-10-16T03:56:10;1.47;;;1.37;;
18576;SDS011;9418;52.694;13.294;2022-10-16T03:58:37;2.30;;;1.40;;
18576;SDS011;9418;52.694;13.294;2022-10-16T04:01:03;1.63;;;1.53;;
18576;SDS011;9418;52.694;13.294;2022-10-16T04:03:30;1.80;;;1.70;;
18576;SDS011;9418;52.694;13.294;2022-10-16T04:05:57;2.47;;;1.43;;
18576;SDS011;9418;52.694;13.294;2022-10-16T04:08:23;1.50;;;1.40;;
18576;SDS011;9418;52.694;13.294;2022-10-16T04:10:50;3.80;;;1.63;;
18576;SDS011;9418;52.694;13.294;2022-10-16T04:13:18;1.63;;;1.57;;
18576;SDS011;9418;52.694;13.294;2022-10-16T04:15:45;1.60;;;1.50;;
18576;SDS011;9418;52.694;13.294;2022-10-16T04:18:11;1.60;;;1.50;;
18576;SDS011;9418;52.694;13.294;2022-10-16T04:20:38;3.27;;;1.40;;
18576;SDS011;9418;52.694;13.294;2022-10-16T04:23:05;1.83;;;1.73;;
18576;SDS011;9418;52.694;13.294;2022-10-16T04:25:31;3.13;;;1.37;;
18576;SDS011;9418;52.694;13.294;2022-10-16T04:27:58;2.17;;;2.07;;
18576;SDS011;9418;52.694;13.294;2022-10-16T04:30:26;2.33;;;1.53;;
18576;SDS011;9418;52.694;13.294;2022-10-16T04:32:52;2.00;;;1.90;;
18576;SDS011;9418;52.694;13.294;2022-10-16T04:35:20;2.40;;;2.20;;
18576;SDS011;9418;52.694;13.294;2022-10-16T04:37:47;1.73;;;1.63;;
18576;SDS011;9418;52.694;13.294;2022-10-16T04:40:14;2.70;;;1.63;;
18576;SDS011;9418;52.694;13.294;2022-10-16T04:42:40;5.20;;;1.87;;
18576;SDS011;9418;52.694;13.294;2022-10-16T04:45:07;11.87;;;1.37;;
18576;SDS011;9418;52.694;13.294;2022-10-16T04:47:36;6.10;;;1.90;;
18576;SDS011;9418;52.694;13.294;2022-10-16T04:50:03;1.77;;;1.67;;
18576;SDS011;9418;52.694;13.294;2022-10-16T04:52:30;2.77;;;1.53;;
18576;SDS011;9418;52.694;13.294;2022-10-16T04:54:57;1.47;;;1.27;;
18576;SDS011;9418;52.694;13.294;2022-10-16T04:57:26;1.70;;;1.50;;
18576;SDS011;9418;52.694;13.294;2022-10-16T04:59:53;1.90;;;1.80;;
18576;SDS011;9418;52.694;13.294;2022-10-16T05:02:19;1.97;;;1.47;;
18576;SDS011;9418;52.694;13.294;2022-10-16T05:04:47;2.87;;;1.60;;
18576;SDS011;9418;52.694;13.294;2022-10-16T05:07:14;1.77;;;1.40;;
18576;SDS011;9418;52.694;13.294;2022-10-16T05:09:41;8.27;;;1.70;;
18576;SDS011;9418;52.694;13.294;2022-10-16T05:12:08;1.50;;;1.40;;
18576;SDS011;9418;52.694;13.294;2022-10-16T05:14:34;1.73;;;1.37;;
18576;SDS011;9418;52.694;13.294;2022-10-16T05:17:01;1.30;;;1.20;;
18576;SDS011;9418;52.694;13.294;2022-10-16T05:19:27;1.20;;;1.07;;
18576;SDS011;9418;52.694;13.294;2022-10-16T05:21:55;1.33;;;1.23;;
18576;SDS011;9418;52.694;13.294;2022-10-16T05:24:22;2.80;;;1.40;;
18576;SDS011;9418;52.694;13.294;2022-10-16T05:26:49;1.43;;;1.33;;
18576;SDS011;9418;52.694;13.294;2022-10-16T05:29:16;1.00;;;1.00;;
18576;SDS011;9418;52.694;13.294;2022-10-16T05:31:43;2.20;;;1.50;;
18576;SDS011;9418;52.694;13.294;2022-10-16T05:34:09;1.30;;;1.20;;
18576;SDS011;9418;52.694;13.294;2022-10-16T05:36:36;2.10;;;1.30;;
18576;SDS011;9418;52.694;13.294;2022-10-16T05:39:04;1.30;;;1.17;;
18576;SDS011;9418;52.694;13.294;2022-10-16T05:41:31;2.40;;;1.50;;
18576;SDS011;9418;52.694;13.294;2022-10-16T05:43:57;1.53;;;1.20;;
18576;SDS011;9418;52.694;13.294;2022-10-16T05:46:24;1.60;;;1.50;;
18576;SDS011;9418;52.694;13.294;2022-10-16T05:48:51;1.53;;;1.20;;
18576;SDS011;9418;52.694;13.294;2022-10-16T05:51:18;12.13;;;1.83;;
18576;SDS011;9418;52.694;13.294;2022-10-16T05:53:44;2.30;;;1.70;;
18576;SDS011;9418;52.694;13.294;2022-10-16T05:56:12;3.50;;;1.50;;
18576;SDS011;9418;52.694;13.294;2022-10-16T05:58:39;6.10;;;1.50;;
18576;SDS011;9418;52.694;13.294;2022-10-16T06:01:07;3.53;;;1.70;;
18576;SDS011;9418;52.694;13.294;2022-10-16T06:03:37;2.20;;;2.00;;
18576;SDS011;9418;52.694;13.294;2022-10-16T06:06:07;2.30;;;2.20;;
18576;SDS011;9418;52.694;13.294;2022-10-16T06:08:35;3.20;;;2.00;;
18576;SDS011;9418;52.694;13.294;2022-10-16T06:11:01;6.67;;;5.97;;
18576;SDS011;9418;52.694;13.294;2022-10-16T06:13:30;9.10;;;6.87;;
18576;SDS011;9418;52.694;13.294;2022-10-16T06:15:57;7.63;;;4.50;;
18576;SDS011;9418;52.694;13.294;2022-10-16T06:18:24;2.70;;;2.50;;
18576;SDS011;9418;52.694;13.294;2022-10-16T06:20:51;2.00;;;1.90;;
18576;SDS011;9418;52.694;13.294;2022-10-16T06:23:18;1.77;;;1.67;;
18576;SDS011;9418;52.694;13.294;2022-10-16T06:25:44;2.10;;;1.50;;
18576;SDS011;9418;52.694;13.294;2022-10-16T06:28:11;2.97;;;1.93;;
18576;SDS011;9418;52.694;13.294;2022-10-16T06:30:41;2.50;;;2.30;;
18576;SDS011;9418;52.694;13.294;2022-10-16T06:33:08;3.40;;;3.20;;
18576;SDS011;9418;52.694;13.294;2022-10-16T06:35:35;3.33;;;2.80;;
18576;SDS011;9418;52.694;13.294;2022-10-16T06:38:01;2.40;;;2.20;;
18576;SDS011;9418;52.694;13.294;2022-10-16T06:40:28;3.50;;;2.77;;
18576;SDS011;9418;52.694;13.294;2022-10-16T06:42:55;5.67;;;3.97;;
18576;SDS011;9418;52.694;13.294;2022-10-16T06:45:21;6.60;;;4.53;;
18576;SDS011;9418;52.694;13.294;2022-10-16T06:47:49;5.50;;;4.50;;
18576;SDS011;9418;52.694;13.294;2022-10-16T06:50:16;4.67;;;4.27;;
18576;SDS011;9418;52.694;13.294;2022-10-16T06:52:43;5.30;;;3.73;;
18576;SDS011;9418;52.694;13.294;2022-10-16T06:55:09;2.93;;;2.70;;
18576;SDS011;9418;52.694;13.294;2022-10-16T06:57:36;4.13;;;3.60;;
18576;SDS011;9418;52.694;13.294;2022-10-16T07:00:03;3.33;;;2.13;;
18576;SDS011;9418;52.694;13.294;2022-10-16T07:02:30;3.70;;;2.73;;
18576;SDS011;9418;52.694;13.294;2022-10-16T07:04:58;2.77;;;2.27;;
18576;SDS011;9418;52.694;13.294;2022-10-16T07:07:25;3.97;;;1.93;;
18576;SDS011;9418;52.694;13.294;2022-10-16T07:09:51;2.33;;;2.23;;
18576;SDS011;9418;52.694;13.294;2022-10-16T07:12:18;2.20;;;2.07;;
18576;SDS011;9418;52.694;13.294;2022-10-16T07:14:44;2.50;;;2.30;;
18576;SDS011;9418;52.694;13.294;2022-10-16T07:17:11;3.57;;;3.10;;
18576;SDS011;9418;52.694;13.294;2022-10-16T07:19:38;5.00;;;4.07;;
18576;SDS011;9418;52.694;13.294;2022-10-16T07:22:06;3.63;;;3.23;;
18576;SDS011;9418;52.694;13.294;2022-10-16T07:24:32;2.43;;;2.33;;
18576;SDS011;9418;52.694;13.294;2022-10-16T07:27:00;2.50;;;2.30;;
18576;SDS011;9418;52.694;13.294;2022-10-16T07:29:26;2.90;;;2.60;;
18576;SDS011;9418;52.694;13.294;2022-10-16T07:31:53;2.40;;;2.20;;
18576;SDS011;9418;52.694;13.294;2022-10-16T07:34:19;2.13;;;1.90;;
18576;SDS011;9418;52.694;13.294;2022-10-16T07:36:47;3.27;;;2.97;;
18576;SDS011;9418;52.694;13.294;2022-10-16T07:39:16;2.83;;;2.63;;
18576;SDS011;9418;52.694;13.294;2022-10-16T07:41:43;5.83;;;4.23;;
18576;SDS011;9418;52.694;13.294;2022-10-16T07:44:09;4.03;;;3.73;;
18576;SDS011;9418;52.694;13.294;2022-10-16T07:46:36;3.67;;;3.37;;
18576;SDS011;9418;52.694;13.294;2022-10-16T07:49:03;5.40;;;2.87;;
18576;SDS011;9418;52.694;13.294;2022-10-16T07:51:30;4.77;;;2.70;;
18576;SDS011;9418;52.694;13.294;2022-10-16T07:53:56;6.00;;;3.03;;
18576;SDS011;9418;52.694;13.294;2022-10-16T07:56:24;2.67;;;2.47;;
18576;SDS011;9418;52.694;13.294;2022-10-16T07:58:51;3.63;;;2.20;;
18576;SDS011;9418;52.694;13.294;2022-10-16T08:01:18;3.30;;;2.27;;
18576;SDS011;9418;52.694;13.294;2022-10-16T08:03:46;2.57;;;2.30;;
18576;SDS011;9418;52.694;13.294;2022-10-16T08:06:13;2.10;;;1.93;;
18576;SDS011;9418;52.694;13.294;2022-10-16T08:08:40;1.90;;;1.80;;
18576;SDS011;9418;52.694;13.294;2022-10-16T08:11:07;6.83;;;2.17;;
18576;SDS011;9418;52.694;13.294;2022-10-16T08:13:36;1.90;;;1.80;;
18576;SDS011;9418;52.694;13.294;2022-10-16T08:16:03;2.30;;;1.73;;
18576;SDS011;9418;52.694;13.294;2022-10-16T08:18:32;2.83;;;1.77;;
18576;SDS011;9418;52.694;13.294;2022-10-16T08:20:59;2.00;;;1.90;;
18576;SDS011;9418;52.694;13.294;2022-10-16T08:23:26;3.07;;;2.00;;
18576;SDS011;9418;52.694;13.294;2022-10-16T08:25:54;2.37;;;2.17;;
18576;SDS011;9418;52.694;13.294;2022-10-16T08:28:21;2.07;;;1.93;;
18576;SDS011;9418;52.694;13.294;2022-10-16T08:30:50;3.03;;;2.83;;
18576;SDS011;9418;52.694;13.294;2022-10-16T08:33:16;2.17;;;2.03;;
18576;SDS011;9418;52.694;13.294;2022-10-16T08:35:49;3.07;;;2.87;;
18576;SDS011;9418;52.694;13.294;2022-10-16T08:38:17;5.40;;;4.50;;
18576;SDS011;9418;52.694;13.294;2022-10-16T08:40:44;8.70;;;7.00;;
18576;SDS011;9418;52.694;13.294;2022-10-16T08:43:16;13.83;;;5.67;;
18576;SDS011;9418;52.694;13.294;2022-10-16T08:46:15;9.83;;;6.80;;
18576;SDS011;9418;52.694;13.294;2022-10-16T08:48:54;9.30;;;6.17;;
18576;SDS011;9418;52.694;13.294;2022-10-16T08:51:23;9.00;;;5.57;;
18576;SDS011;9418;52.694;13.294;2022-10-16T08:53:52;2.50;;;2.30;;
18576;SDS011;9418;52.694;13.294;2022-10-16T08:56:21;2.67;;;2.33;;
18576;SDS011;9418;52.694;13.294;2022-10-16T08:58:48;2.30;;;2.20;;
18576;SDS011;9418;52.694;13.294;2022-10-16T09:01:19;2.60;;;2.40;;
18576;SDS011;9418;52.694;13.294;2022-10-16T09:03:53;7.27;;;3.37;;
18576;SDS011;9418;52.694;13.294;2022-10-16T09:06:39;3.60;;;3.30;;
18576;SDS011;9418;52.694;13.294;2022-10-16T09:09:18;4.00;;;2.10;;
18576;SDS011;9418;52.694;13.294;2022-10-16T09:12:02;2.70;;;2.50;;
18576;SDS011;9418;52.694;13.294;2022-10-16T09:14:38;3.87;;;2.43;;
18576;SDS011;9418;52.694;13.294;2022-10-16T09:17:16;3.40;;;2.80;;
18576;SDS011;9418;52.694;13.294;2022-10-16T09:19:53;3.57;;;2.50;;
18576;SDS011;9418;52.694;13.294;2022-10-16T09:22:29;7.97;;;2.53;;
18576;SDS011;9418;52.694;13.294;2022-10-16T09:24:59;5.17;;;3.90;;
18576;SDS011;9418;52.694;13.294;2022-10-16T09:27:27;11.97;;;2.93;;
18576;SDS011;9418;52.694;13.294;2022-10-16T09:29:54;2.80;;;2.40;;
18576;SDS011;9418;52.694;13.294;2022-10-16T09:32:22;5.60;;;2.40;;
18576;SDS011;9418;52.694;13.294;2022-10-16T09:34:50;2.63;;;2.43;;
18576;SDS011;9418;52.694;13.294;2022-10-16T09:37:20;3.33;;;2.20;;
18576;SDS011;9418;52.694;13.294;2022-10-16T09:39:49;7.57;;;5.03;;
18576;SDS011;9418;52.694;13.294;2022-10-16T09:42:17;3.23;;;2.10;;
18576;SDS011;9418;52.694;13.294;2022-10-16T09:44:47;8.23;;;4.27;;
18576;SDS011;9418;52.694;13.294;2022-10-16T09:47:16;18.67;;;13.60;;
18576;SDS011;9418;52.694;13.294;2022-10-16T09:49:54;34.17;;;21.87;;
18576;SDS011;9418;52.694;13.294;2022-10-16T09:52:23;16.07;;;6.67;;
18576;SDS011;9418;52.694;13.294;2022-10-16T09:54:50;7.63;;;5.07;;
18576;SDS011;9418;52.694;13.294;2022-10-16T09:57:18;4.40;;;4.00;;
18576;SDS011;9418;52.694;13.294;2022-10-16T09:59:46;15.63;;;11.07;;
18576;SDS011;9418;52.694;13.294;2022-10-16T10:02:14;2.93;;;2.50;;
18576;SDS011;9418;52.694;13.294;2022-10-16T10:04:44;3.83;;;3.53;;
18576;SDS011;9418;52.694;13.294;2022-10-16T10:07:20;4.00;;;3.60;;
18576;SDS011;9418;52.694;13.294;2022-10-16T10:09:50;8.43;;;6.50;;
18576;SDS011;9418;52.694;13.294;2022-10-16T10:12:18;4.63;;;4.23;;
18576;SDS011;9418;52.694;13.294;2022-10-16T10:14:47;10.70;;;6.93;;
18576;SDS011;9418;52.694;13.294;2022-10-16T10:17:17;3.63;;;2.10;;
18576;SDS011;9418;52.694;13.294;2022-10-16T10:19:49;3.90;;;3.30;;
18576;SDS011;9418;52.694;13.294;2022-10-16T10:22:26;3.30;;;2.30;;
18576;SDS011;9418;52.694;13.294;2022-10-16T10:24:56;7.80;;;5.30;;
18576;SDS011;9418;52.694;13.294;2022-10-16T10:27:27;3.63;;;3.33;;
18576;SDS011;9418;52.694;13.294;2022-10-16T10:30:03;7.30;;;2.50;;
18576;SDS011;9418;52.694;13.294;2022-10-16T10:32:37;3.17;;;1.67;;
18576;SDS011;9418;52.694;13.294;2022-10-16T10:35:14;3.93;;;1.90;;
18576;SDS011;9418;52.694;13.294;2022-10-16T10:37:51;4.07;;;1.70;;
18576;SDS011;9418;52.694;13.294;2022-10-16T10:40:30;1.97;;;1.87;;
18576;SDS011;9418;52.694;13.294;2022-10-16T10:43:07;2.33;;;2.13;;
18576;SDS011;9418;52.694;13.294;2022-10-16T10:45:41;2.03;;;1.90;;
18576;SDS011;9418;52.694;13.294;2022-10-16T10:48:16;2.30;;;1.50;;
18576;SDS011;9418;52.694;13.294;2022-10-16T10:50:48;5.63;;;2.30;;
18576;SDS011;9418;52.694;13.294;2022-10-16T10:53:21;2.10;;;1.47;;
18576;SDS011;9418;52.694;13.294;2022-10-16T10:56:00;2.43;;;1.80;;
18576;SDS011;9418;52.694;13.294;2022-10-16T10:58:42;3.27;;;1.77;;
18576;SDS011;9418;52.694;13.294;2022-10-16T11:01:34;2.30;;;2.10;;
18576;SDS011;9418;52.694;13.294;2022-10-16T11:04:15;3.63;;;2.20;;
18576;SDS011;9418;52.694;13.294;2022-10-16T11:06:59;4.10;;;2.33;;
18576;SDS011;9418;52.694;13.294;2022-10-16T11:09:32;2.07;;;1.73;;
18576;SDS011;9418;52.694;13.294;2022-10-16T11:12:04;2.33;;;2.00;;
18576;SDS011;9418;52.694;13.294;2022-10-16T11:14:34;4.03;;;2.60;;
18576;SDS011;9418;52.694;13.294;2022-10-16T11:17:06;8.03;;;2.60;;
18576;SDS011;9418;52.694;13.294;2022-10-16T11:19:39;4.77;;;2.30;;
18576;SDS011;9418;52.694;13.294;2022-10-16T11:22:12;1.50;;;1.27;;
18576;SDS011;9418;52.694;13.294;2022-10-16T11:24:45;8.20;;;2.10;;
18576;SDS011;9418;52.694;13.294;2022-10-16T11:27:15;1.63;;;1.53;;
18576;SDS011;9418;52.694;13.294;2022-10-16T11:29:47;4.10;;;1.73;;
18576;SDS011;9418;52.694;13.294;2022-10-16T11:32:19;1.80;;;1.60;;
18576;SDS011;9418;52.694;13.294;2022-10-16T11:34:50;2.10;;;1.70;;
18576;SDS011;9418;52.694;13.294;2022-10-16T11:37:23;2.30;;;1.93;;
18576;SDS011;9418;52.694;13.294;2022-10-16T11:39:58;3.83;;;2.80;;
18576;SDS011;9418;52.694;13.294;2022-10-16T11:42:32;1.70;;;1.60;;
18576;SDS011;9418;52.694;13.294;2022-10-16T11:45:04;1.70;;;1.60;;
18576;SDS011;9418;52.694;13.294;2022-10-16T11:47:41;2.50;;;2.07;;
18576;SDS011;9418;52.694;13.294;2022-10-16T11:50:13;2.17;;;2.07;;
18576;SDS011;9418;52.694;13.294;2022-10-16T11:52:51;3.30;;;2.20;;
18576;SDS011;9418;52.694;13.294;2022-10-16T11:55:23;5.37;;;2.80;;
18576;SDS011;9418;52.694;13.294;2022-10-16T11:57:57;3.93;;;2.67;;
18576;SDS011;9418;52.694;13.294;2022-10-16T12:00:28;5.00;;;3.07;;
18576;SDS011;9418;52.694;13.294;2022-10-16T12:03:01;3.23;;;2.37;;
18576;SDS011;9418;52.694;13.294;2022-10-16T12:05:40;13.73;;;2.83;;
18576;SDS011;9418;52.694;13.294;2022-10-16T12:08:21;5.77;;;2.63;;
18576;SDS011;9418;52.694;13.294;2022-10-16T12:10:49;4.60;;;2.23;;
18576;SDS011;9418;52.694;13.294;2022-10-16T12:13:29;2.10;;;2.00;;
18576;SDS011;9418;52.694;13.294;2022-10-16T12:16:07;2.90;;;2.27;;
18576;SDS011;9418;52.694;13.294;2022-10-16T12:18:47;1.97;;;1.30;;
18576;SDS011;9418;52.694;13.294;2022-10-16T12:21:15;2.30;;;1.67;;
18576;SDS011;9418;52.694;13.294;2022-10-16T12:23:46;1.33;;;1.23;;
18576;SDS011;9418;52.694;13.294;2022-10-16T12:26:16;3.30;;;2.40;;
18576;SDS011;9418;52.694;13.294;2022-10-16T12:28:50;4.30;;;2.00;;
18576;SDS011;9418;52.694;13.294;2022-10-16T12:31:17;2.10;;;1.90;;
18576;SDS011;9418;52.694;13.294;2022-10-16T12:33:51;2.83;;;2.00;;
18576;SDS011;9418;52.694;13.294;2022-10-16T12:36:26;2.40;;;1.70;;
18576;SDS011;9418;52.694;13.294;2022-10-16T12:38:55;1.40;;;1.30;;
18576;SDS011;9418;52.694;13.294;2022-10-16T12:41:26;1.83;;;1.73;;
18576;SDS011;9418;52.694;13.294;2022-10-16T12:43:54;3.70;;;1.60;;
18576;SDS011;9418;52.694;13.294;2022-10-16T12:46:23;3.20;;;1.80;;
18576;SDS011;9418;52.694;13.294;2022-10-16T12:49:05;3.30;;;1.30;;
18576;SDS011;9418;52.694;13.294;2022-10-16T12:51:34;1.40;;;1.30;;
18576;SDS011;9418;52.694;13.294;2022-10-16T12:54:02;1.10;;;1.00;;
18576;SDS011;9418;52.694;13.294;2022-10-16T12:56:35;1.07;;;0.97;;
18576;SDS011;9418;52.694;13.294;2022-10-16T12:59:18;2.50;;;1.00;;
18576;SDS011;9418;52.694;13.294;2022-10-16T13:02:00;2.27;;;1.10;;
18576;SDS011;9418;52.694;13.294;2022-10-16T13:04:45;7.70;;;0.77;;
18576;SDS011;9418;52.694;13.294;2022-10-16T13:07:29;1.07;;;0.67;;
18576;SDS011;9418;52.694;13.294;2022-10-16T13:10:10;1.40;;;1.00;;
18576;SDS011;9418;52.694;13.294;2022-10-16T13:12:49;1.37;;;0.60;;
18576;SDS011;9418;52.694;13.294;2022-10-16T13:15:41;0.97;;;0.90;;
18576;SDS011;9418;52.694;13.294;2022-10-16T13:18:21;1.10;;;0.70;;
18576;SDS011;9418;52.694;13.294;2022-10-16T13:20:57;1.03;;;0.50;;
18576;SDS011;9418;52.694;13.294;2022-10-16T13:23:36;2.53;;;1.03;;
18576;SDS011;9418;52.694;13.294;2022-10-16T13:26:14;1.00;;;0.50;;
18576;SDS011;9418;52.694;13.294;2022-10-16T13:28:49;0.63;;;0.60;;
18576;SDS011;9418;52.694;13.294;2022-10-16T13:31:17;0.60;;;0.60;;
18576;SDS011;9418;52.694;13.294;2022-10-16T13:33:46;1.80;;;0.70;;
18576;SDS011;9418;52.694;13.294;2022-10-16T13:36:19;3.90;;;0.70;;
18576;SDS011;9418;52.694;13.294;2022-10-16T13:38:47;1.07;;;0.70;;
18576;SDS011;9418;52.694;13.294;2022-10-16T13:41:15;0.93;;;0.80;;
18576;SDS011;9418;52.694;13.294;2022-10-16T13:43:44;1.00;;;0.50;;
18576;SDS011;9418;52.694;13.294;2022-10-16T13:46:14;0.87;;;0.50;;
18576;SDS011;9418;52.694;13.294;2022-10-16T13:48:42;6.23;;;0.73;;
18576;SDS011;9418;52.694;13.294;2022-10-16T13:51:11;2.97;;;0.50;;
18576;SDS011;9418;52.694;13.294;2022-10-16T13:53:40;0.87;;;0.67;;
18576;SDS011;9418;52.694;13.294;2022-10-16T13:56:09;0.90;;;0.73;;
18576;SDS011;9418;52.694;13.294;2022-10-16T13:58:37;1.37;;;1.27;;
18576;SDS011;9418;52.694;13.294;2022-10-16T14:01:05;0.60;;;0.50;;
18576;SDS011;9418;52.694;13.294;2022-10-16T14:03:44;1.17;;;0.60;;
18576;SDS011;9418;52.694;13.294;2022-10-16T14:06:12;4.50;;;0.60;;
18576;SDS011;9418;52.694;13.294;2022-10-16T14:08:42;1.43;;;0.67;;
18576;SDS011;9418;52.694;13.294;2022-10-16T14:11:10;4.97;;;0.60;;
18576;SDS011;9418;52.694;13.294;2022-10-16T14:13:38;0.50;;;0.40;;
18576;SDS011;9418;52.694;13.294;2022-10-16T14:16:09;0.87;;;0.63;;
18576;SDS011;9418;52.694;13.294;2022-10-16T14:18:41;2.90;;;0.83;;
18576;SDS011;9418;52.694;13.294;2022-10-16T14:21:16;5.50;;;0.70;;
18576;SDS011;9418;52.694;13.294;2022-10-16T14:23:44;1.20;;;0.50;;
18576;SDS011;9418;52.694;13.294;2022-10-16T14:26:12;1.30;;;0.73;;
18576;SDS011;9418;52.694;13.294;2022-10-16T14:28:41;0.80;;;0.73;;
18576;SDS011;9418;52.694;13.294;2022-10-16T14:31:25;0.60;;;0.50;;
18576;SDS011;9418;52.694;13.294;2022-10-16T14:33:55;4.10;;;1.20;;
18576;SDS011;9418;52.694;13.294;2022-10-16T14:36:22;6.33;;;1.13;;
18576;SDS011;9418;52.694;13.294;2022-10-16T14:38:54;3.20;;;2.83;;
18576;SDS011;9418;52.694;13.294;2022-10-16T14:41:25;1.20;;;0.97;;
18576;SDS011;9418;52.694;13.294;2022-10-16T14:43:52;1.20;;;0.60;;
18576;SDS011;9418;52.694;13.294;2022-10-16T14:46:21;1.33;;;0.63;;
18576;SDS011;9418;52.694;13.294;2022-10-16T14:48:57;0.70;;;0.70;;
18576;SDS011;9418;52.694;13.294;2022-10-16T14:51:27;3.30;;;1.30;;
18576;SDS011;9418;52.694;13.294;2022-10-16T14:53:53;1.33;;;1.23;;
18576;SDS011;9418;52.694;13.294;2022-10-16T14:56:21;1.57;;;1.33;;
18576;SDS011;9418;52.694;13.294;2022-10-16T14:58:49;0.70;;;0.70;;
18576;SDS011;9418;52.694;13.294;2022-10-16T15:01:17;0.90;;;0.80;;
18576;SDS011;9418;52.694;13.294;2022-10-16T15:03:45;1.47;;;0.93;;